createdAt,value
2019-05-17T00:01:54.417Z,13.77
2019-05-17T00:04:21.224Z,16.33
2019-05-17T00:06:47.776Z,15.87
2019-05-17T00:09:14.502Z,17.93
2019-05-17T00:11:40.837Z,20.67
2019-05-17T00:14:09.483Z,18.47
2019-05-17T00:16:37.521Z,17.70
2019-05-17T00:19:07.303Z,17.70
2019-05-17T00:21:33.134Z,20.33
2019-05-17T00:23:59.671Z,17.07
2019-05-17T00:26:26.949Z,19.07
2019-05-17T00:28:56.307Z,17.87
2019-05-17T00:31:22.750Z,13.90
2019-05-17T00:33:49.001Z,14.60
2019-05-17T00:36:17.640Z,12.33
2019-05-17T00:38:48.405Z,12.83
2019-05-17T00:41:11.963Z,18.87
2019-05-17T00:43:51.513Z,15.77
2019-05-17T00:46:18.065Z,12.03
2019-05-17T00:48:46.581Z,13.33
2019-05-17T00:51:27.411Z,12.40
2019-05-17T00:53:56.245Z,15.27
2019-05-17T00:56:23.058Z,11.47
2019-05-17T00:58:51.656Z,14.37
2019-05-17T01:01:18.058Z,11.90
2019-05-17T01:03:47.600Z,11.60
2019-05-17T01:06:16.898Z,12.80
2019-05-17T01:08:43.148Z,10.60
2019-05-17T01:11:09.728Z,11.90
2019-05-17T01:13:43.071Z,10.00
2019-05-17T01:16:09.324Z,10.20
2019-05-17T01:18:36.226Z,8.93
2019-05-17T01:21:06.451Z,8.03
2019-05-17T01:23:33.084Z,10.50
2019-05-17T01:25:59.462Z,8.10
2019-05-17T01:28:26.929Z,7.10
2019-05-17T01:30:53.490Z,14.87
2019-05-17T01:33:19.844Z,10.50
2019-05-17T01:35:54.088Z,9.10
2019-05-17T01:38:20.667Z,8.80
2019-05-17T01:40:47.321Z,10.20
2019-05-17T01:43:13.602Z,12.57
2019-05-17T01:45:39.891Z,13.87
2019-05-17T01:48:10.899Z,14.27
2019-05-17T01:50:37.639Z,14.10
2019-05-17T01:53:07.124Z,16.07
2019-05-17T01:55:33.328Z,17.50
2019-05-17T01:57:59.679Z,15.53
2019-05-17T02:00:26.672Z,16.23
2019-05-17T02:02:54.564Z,13.27
2019-05-17T02:05:20.960Z,13.47
2019-05-17T02:07:47.678Z,11.10
2019-05-17T02:10:17.236Z,11.40
2019-05-17T02:12:43.808Z,16.50
2019-05-17T02:15:11.363Z,13.13
2019-05-17T02:17:37.993Z,23.13
2019-05-17T02:20:10.389Z,17.33
2019-05-17T02:22:36.930Z,22.23
2019-05-17T02:25:09.114Z,22.90
2019-05-17T02:27:40.906Z,44.73
2019-05-17T02:30:08.084Z,40.00
2019-05-17T02:32:35.049Z,28.77
2019-05-17T02:35:03.577Z,27.40
2019-05-17T02:37:35.939Z,26.07
2019-05-17T02:40:08.182Z,32.37
2019-05-17T02:42:33.498Z,30.47
2019-05-17T02:45:03.056Z,33.50
2019-05-17T02:47:36.225Z,26.57
2019-05-17T02:50:05.556Z,29.70
2019-05-17T02:52:43.815Z,29.67
2019-05-17T02:55:12.796Z,37.53
2019-05-17T02:57:42.826Z,33.70
2019-05-17T03:00:13.420Z,36.67
2019-05-17T03:02:43.436Z,33.40
2019-05-17T03:05:13.076Z,31.30
2019-05-17T03:07:39.506Z,37.47
2019-05-17T03:10:18.304Z,42.50
2019-05-17T03:12:36.999Z,37.17
2019-05-17T03:15:04.786Z,38.33
2019-05-17T03:17:33.849Z,38.30
2019-05-17T03:19:59.329Z,41.50
2019-05-17T03:22:25.834Z,43.37
2019-05-17T03:24:53.319Z,41.87
2019-05-17T03:27:23.289Z,40.93
2019-05-17T03:29:55.597Z,40.13
2019-05-17T03:32:26.612Z,41.13
2019-05-17T03:34:57.017Z,37.67
2019-05-17T03:37:36.665Z,38.70
2019-05-17T03:40:23.542Z,33.80
2019-05-17T03:42:35.946Z,40.77
2019-05-17T03:45:05.022Z,41.27
2019-05-17T03:47:33.434Z,40.17
2019-05-17T03:50:03.042Z,40.83
2019-05-17T03:52:35.054Z,44.80
2019-05-17T03:55:05.172Z,42.57
2019-05-17T03:57:32.294Z,38.13
2019-05-17T03:59:59.218Z,44.63
2019-05-17T04:02:25.857Z,39.97
2019-05-17T04:04:53.159Z,44.10
2019-05-17T04:07:23.538Z,50.03
2019-05-17T04:09:52.961Z,45.67
2019-05-17T04:12:25.640Z,48.47
2019-05-17T04:14:53.364Z,56.27
2019-05-17T04:17:22.709Z,55.37
2019-05-17T04:19:48.352Z,65.50
2019-05-17T04:22:15.089Z,51.17
2019-05-17T04:24:43.887Z,58.03
2019-05-17T04:27:13.562Z,52.13
2019-05-17T04:29:43.531Z,53.97
2019-05-17T04:32:13.025Z,53.10
2019-05-17T04:34:38.479Z,53.53
2019-05-17T04:37:13.049Z,49.63
2019-05-17T04:39:45.996Z,46.63
2019-05-17T04:42:13.534Z,48.00
2019-05-17T04:44:46.362Z,41.67
2019-05-17T04:47:17.401Z,50.47
2019-05-17T04:49:53.304Z,45.50
2019-05-17T04:52:18.009Z,45.90
2019-05-17T04:54:44.389Z,45.50
2019-05-17T04:57:13.082Z,44.10
2019-05-17T04:59:39.326Z,47.13
2019-05-17T05:02:05.679Z,41.87
2019-05-17T05:04:34.782Z,40.70
2019-05-17T05:07:05.685Z,38.30
2019-05-17T05:09:32.403Z,37.37
2019-05-17T05:12:04.766Z,37.83
2019-05-17T05:14:29.047Z,41.43
2019-05-17T05:16:56.836Z,35.77
2019-05-17T05:19:23.313Z,34.20
2019-05-17T05:21:51.977Z,35.60
2019-05-17T05:24:17.858Z,35.73
2019-05-17T05:26:45.481Z,36.03
2019-05-17T05:29:12.829Z,40.50
2019-05-17T05:31:42.771Z,33.80
2019-05-17T05:34:08.978Z,34.33
2019-05-17T05:36:35.375Z,33.10
2019-05-17T05:39:06.319Z,33.87
2019-05-17T05:41:32.613Z,31.47
2019-05-17T05:43:58.909Z,29.27
2019-05-17T05:46:25.604Z,35.43
2019-05-17T05:48:53.303Z,31.53
2019-05-17T05:51:21.614Z,28.07
2019-05-17T05:53:55.300Z,26.53
2019-05-17T05:56:22.788Z,28.33
2019-05-17T05:58:49.186Z,28.60
2019-05-17T06:01:17.613Z,28.53
2019-05-17T06:03:44.018Z,29.03
2019-05-17T06:06:12.360Z,27.47
2019-05-17T06:08:38.872Z,26.40
2019-05-17T06:11:07.080Z,27.40
2019-05-17T06:13:33.739Z,23.80
2019-05-17T06:16:02.423Z,25.67
2019-05-17T06:18:28.612Z,24.67
2019-05-17T06:20:55.235Z,27.07
2019-05-17T06:23:23.505Z,21.53
2019-05-17T06:25:52.039Z,23.73
2019-05-17T06:28:18.353Z,22.20
2019-05-17T06:30:44.704Z,25.87
2019-05-17T06:33:12.018Z,22.03
2019-05-17T06:35:42.372Z,22.33
2019-05-17T06:38:08.919Z,22.90
2019-05-17T06:40:35.389Z,22.40
2019-05-17T06:43:04.404Z,21.70
2019-05-17T06:45:32.620Z,21.57
2019-05-17T06:48:02.342Z,19.33
2019-05-17T06:50:28.755Z,20.47
2019-05-17T06:52:55.028Z,21.13
2019-05-17T06:55:21.400Z,20.20
2019-05-17T06:57:47.805Z,24.67
2019-05-17T07:00:20.611Z,21.50
2019-05-17T07:02:44.084Z,19.07
2019-05-17T07:05:31.614Z,23.57
2019-05-17T07:08:00.296Z,19.70
2019-05-17T07:10:30.172Z,19.77
2019-05-17T07:13:01.988Z,18.00
2019-05-17T07:15:43.730Z,20.33
2019-05-17T07:18:00.045Z,18.70
2019-05-17T07:20:32.745Z,19.63
2019-05-17T07:23:00.347Z,18.73
2019-05-17T07:25:27.028Z,17.73
2019-05-17T07:27:57.643Z,18.23
2019-05-17T07:30:30.552Z,21.07
2019-05-17T07:33:00.201Z,17.87
2019-05-17T07:35:26.416Z,15.13
2019-05-17T07:37:52.797Z,17.13
2019-05-17T07:40:19.927Z,17.07
2019-05-17T07:42:50.070Z,14.63
2019-05-17T07:45:20.215Z,14.73
2019-05-17T07:47:46.368Z,12.97
2019-05-17T07:50:15.081Z,14.40
2019-05-17T07:52:41.810Z,16.90
2019-05-17T07:55:20.711Z,13.07
2019-05-17T07:57:45.489Z,16.07
2019-05-17T08:00:12.785Z,13.57
2019-05-17T08:02:40.073Z,15.70
2019-05-17T08:05:10.305Z,12.50
2019-05-17T08:07:37.035Z,13.00
2019-05-17T08:10:05.861Z,10.57
2019-05-17T08:12:32.520Z,12.03
2019-05-17T08:14:59.875Z,12.47
2019-05-17T08:17:34.536Z,16.23
2019-05-17T08:20:01.244Z,15.13
2019-05-17T08:22:30.882Z,20.50
2019-05-17T08:24:57.279Z,12.60
2019-05-17T08:27:23.535Z,13.03
2019-05-17T08:29:49.997Z,14.30
2019-05-17T08:32:16.810Z,13.07
2019-05-17T08:34:43.174Z,15.53
2019-05-17T08:37:09.527Z,13.10
2019-05-17T08:39:35.994Z,14.03
2019-05-17T08:42:05.315Z,12.97
2019-05-17T08:44:31.725Z,11.43
2019-05-17T08:46:59.480Z,13.07
2019-05-17T08:49:29.445Z,12.87
2019-05-17T08:51:55.284Z,12.30
2019-05-17T08:54:21.845Z,11.67
2019-05-17T08:56:50.286Z,13.63
2019-05-17T08:59:16.391Z,14.00
2019-05-17T09:01:44.148Z,10.87
2019-05-17T09:04:10.681Z,13.03
2019-05-17T09:06:39.566Z,11.93
2019-05-17T09:09:09.821Z,11.47
2019-05-17T09:11:36.232Z,13.57
2019-05-17T09:14:03.296Z,12.90
2019-05-17T09:16:30.767Z,12.63
2019-05-17T09:19:00.486Z,15.47
2019-05-17T09:21:27.427Z,11.37
2019-05-17T09:23:54.236Z,13.40
2019-05-17T09:26:20.592Z,11.93
2019-05-17T09:28:46.984Z,13.13
2019-05-17T09:31:13.947Z,10.33
2019-05-17T09:33:43.339Z,10.43
2019-05-17T09:36:10.952Z,13.27
2019-05-17T09:38:37.444Z,14.53
2019-05-17T09:41:10.580Z,11.50
2019-05-17T09:43:36.940Z,11.43
2019-05-17T09:46:03.499Z,11.50
2019-05-17T09:48:30.700Z,10.63
2019-05-17T09:50:59.866Z,11.80
2019-05-17T09:53:30.778Z,11.40
2019-05-17T09:55:57.656Z,12.23
2019-05-17T09:58:24.087Z,12.90
2019-05-17T10:00:51.775Z,11.70
2019-05-17T10:03:23.959Z,11.77
2019-05-17T10:05:49.547Z,12.37
2019-05-17T10:08:16.510Z,13.20
2019-05-17T10:10:42.896Z,9.77
2019-05-17T10:13:10.597Z,12.63
2019-05-17T10:15:37.668Z,12.47
2019-05-17T10:18:03.934Z,12.60
2019-05-17T10:20:30.394Z,8.90
2019-05-17T10:22:59.431Z,12.43
2019-05-17T10:25:25.145Z,12.13
2019-05-17T10:27:51.577Z,10.90
2019-05-17T10:30:20.739Z,12.67
2019-05-17T10:32:46.492Z,13.23
2019-05-17T10:35:14.276Z,11.70
2019-05-17T10:37:41.055Z,13.70
2019-05-17T10:40:10.388Z,14.27
2019-05-17T10:42:39.344Z,12.57
2019-05-17T10:45:07.400Z,10.63
2019-05-17T10:47:33.794Z,12.73
2019-05-17T10:50:00.316Z,13.50
2019-05-17T10:52:26.667Z,14.47
2019-05-17T10:54:54.069Z,14.00
2019-05-17T10:57:25.521Z,13.37
2019-05-17T10:59:54.064Z,12.93
2019-05-17T11:02:22.348Z,13.10
2019-05-17T11:04:50.547Z,13.13
2019-05-17T11:07:22.391Z,12.07
2019-05-17T11:09:50.853Z,15.47
2019-05-17T11:12:17.726Z,15.10
2019-05-17T11:14:52.489Z,11.07
2019-05-17T11:17:15.870Z,13.53
2019-05-17T11:19:42.599Z,11.80
2019-05-17T11:22:09.235Z,12.53
2019-05-17T11:24:39.670Z,12.73
2019-05-17T11:27:06.047Z,10.97
2019-05-17T11:29:32.647Z,10.53
2019-05-17T11:31:59.037Z,11.10
2019-05-17T11:34:25.831Z,9.60
2019-05-17T11:36:53.250Z,11.30
2019-05-17T11:39:21.612Z,11.67
2019-05-17T11:41:47.916Z,10.83
2019-05-17T11:44:14.352Z,11.20
2019-05-17T11:46:40.735Z,9.97
2019-05-17T11:49:07.404Z,10.57
2019-05-17T11:51:33.783Z,12.50
2019-05-17T11:54:00.460Z,10.83
2019-05-17T11:56:27.005Z,11.40
2019-05-17T11:58:53.746Z,10.00
2019-05-17T12:01:26.292Z,10.33
2019-05-17T12:03:53.697Z,8.80
2019-05-17T12:06:23.166Z,10.77
2019-05-17T12:08:49.556Z,8.47
2019-05-17T12:11:15.904Z,9.97
2019-05-17T12:13:43.673Z,9.50
2019-05-17T12:16:10.557Z,9.13
2019-05-17T12:18:36.950Z,8.57
2019-05-17T12:21:03.356Z,9.37
2019-05-17T12:23:29.671Z,8.20
2019-05-17T12:25:56.333Z,11.37
2019-05-17T12:28:23.797Z,7.60
2019-05-17T12:30:54.147Z,8.33
2019-05-17T12:33:22.604Z,7.30
2019-05-17T12:35:50.328Z,8.07
2019-05-17T12:38:17.619Z,7.60
2019-05-17T12:40:46.037Z,5.70
2019-05-17T12:43:12.519Z,5.93
2019-05-17T12:45:39.011Z,6.40
2019-05-17T12:48:07.413Z,6.83
2019-05-17T12:50:34.054Z,5.13
2019-05-17T12:53:05.817Z,6.87
2019-05-17T12:55:32.424Z,5.23
2019-05-17T12:57:58.808Z,5.20
2019-05-17T13:00:27.213Z,5.10
2019-05-17T13:02:53.944Z,6.10
2019-05-17T13:05:25.680Z,5.87
2019-05-17T13:07:53.141Z,5.00
2019-05-17T13:10:21.938Z,4.10
2019-05-17T13:12:48.605Z,5.73
2019-05-17T13:15:17.449Z,4.90
2019-05-17T13:17:45.219Z,3.60
2019-05-17T13:20:11.797Z,7.33
2019-05-17T13:22:45.110Z,6.17
2019-05-17T13:25:12.263Z,6.03
2019-05-17T13:27:39.447Z,6.47
2019-05-17T13:30:08.845Z,4.90
2019-05-17T13:32:43.379Z,5.27
2019-05-17T13:35:10.297Z,4.23
2019-05-17T13:37:36.796Z,5.43
2019-05-17T13:40:04.886Z,8.90
2019-05-17T13:42:31.587Z,4.97
2019-05-17T13:44:58.312Z,5.43
2019-05-17T13:47:25.055Z,4.20
2019-05-17T13:49:51.448Z,4.27
2019-05-17T13:52:17.794Z,5.57
2019-05-17T13:54:44.161Z,4.80
2019-05-17T13:57:11.484Z,5.40
2019-05-17T13:59:37.897Z,4.60
2019-05-17T14:02:04.204Z,5.00
2019-05-17T14:04:31.772Z,5.57
2019-05-17T14:06:58.616Z,5.53
2019-05-17T14:09:25.079Z,3.13
2019-05-17T14:11:54.818Z,8.23
2019-05-17T14:14:31.337Z,4.80
2019-05-17T14:16:57.718Z,3.47
2019-05-17T14:19:30.376Z,3.07
2019-05-17T14:21:58.792Z,4.53
2019-05-17T14:24:33.252Z,4.03
2019-05-17T14:27:00.981Z,5.73
2019-05-17T14:29:27.264Z,4.23
2019-05-17T14:32:00.703Z,6.57
2019-05-17T14:34:27.088Z,3.37
2019-05-17T14:36:54.756Z,4.17
2019-05-17T14:39:21.141Z,11.57
2019-05-17T14:41:51.564Z,22.43
2019-05-17T14:44:20.054Z,14.97
2019-05-17T14:46:46.427Z,4.07
2019-05-17T14:49:12.808Z,4.47
2019-05-17T14:51:39.456Z,3.10
2019-05-17T14:54:05.992Z,3.17
2019-05-17T14:56:32.708Z,4.13
2019-05-17T14:58:59.072Z,2.97
2019-05-17T15:01:25.814Z,3.07
2019-05-17T15:03:52.580Z,3.07
2019-05-17T15:06:24.808Z,4.27
2019-05-17T15:08:52.120Z,5.93
2019-05-17T15:11:19.743Z,6.90
2019-05-17T15:13:46.138Z,2.17
2019-05-17T15:16:12.769Z,4.20
2019-05-17T15:18:43.395Z,1.40
2019-05-17T15:21:09.880Z,3.30
2019-05-17T15:23:37.637Z,2.73
2019-05-17T15:26:04.400Z,2.80
2019-05-17T15:28:30.790Z,4.47
2019-05-17T15:30:57.157Z,2.50
2019-05-17T15:33:23.645Z,2.77
2019-05-17T15:35:50.411Z,1.73
2019-05-17T15:38:17.069Z,2.73
2019-05-17T15:40:43.442Z,4.60
2019-05-17T15:43:10.132Z,2.40
2019-05-17T15:45:41.510Z,3.37
2019-05-17T15:48:08.278Z,5.03
2019-05-17T15:50:34.815Z,2.27
2019-05-17T15:53:01.525Z,3.80
2019-05-17T15:55:28.252Z,2.60
2019-05-17T15:57:54.645Z,3.83
2019-05-17T16:00:23.049Z,2.70
2019-05-17T16:02:49.710Z,1.70
2019-05-17T16:05:16.331Z,8.47
2019-05-17T16:07:43.131Z,6.60
2019-05-17T16:10:10.090Z,2.33
2019-05-17T16:12:37.609Z,2.60
2019-05-17T16:15:05.974Z,1.63
2019-05-17T16:17:32.835Z,2.37
2019-05-17T16:19:59.562Z,1.80
2019-05-17T16:22:26.035Z,1.90
2019-05-17T16:24:52.683Z,2.53
2019-05-17T16:27:19.069Z,2.50
2019-05-17T16:29:45.562Z,1.83
2019-05-17T16:32:11.938Z,1.60
2019-05-17T16:34:38.301Z,1.53
2019-05-17T16:37:10.033Z,1.30
2019-05-17T16:39:37.791Z,2.93
2019-05-17T16:42:09.570Z,3.40
2019-05-17T16:44:35.916Z,1.87
2019-05-17T16:47:02.449Z,2.00
2019-05-17T16:49:28.851Z,1.30
2019-05-17T16:52:06.523Z,4.40
2019-05-17T16:54:33.405Z,2.60
2019-05-17T16:56:59.790Z,3.80
2019-05-17T16:59:26.467Z,2.90
2019-05-17T17:01:53.157Z,1.60
2019-05-17T17:04:23.130Z,7.20
2019-05-17T17:06:49.504Z,3.00
2019-05-17T17:09:16.291Z,3.33
2019-05-17T17:11:45.672Z,1.33
2019-05-17T17:14:11.017Z,2.13
2019-05-17T17:16:44.403Z,2.10
2019-05-17T17:19:13.435Z,1.93
2019-05-17T17:21:41.926Z,2.60
2019-05-17T17:24:09.455Z,1.60
2019-05-17T17:26:43.670Z,1.67
2019-05-17T17:29:10.041Z,1.97
2019-05-17T17:31:43.453Z,2.30
2019-05-17T17:34:10.069Z,3.07
2019-05-17T17:36:37.433Z,4.57
2019-05-17T17:39:05.200Z,2.80
2019-05-17T17:41:35.364Z,3.20
2019-05-17T17:44:01.947Z,1.20
2019-05-17T17:46:28.773Z,3.13
2019-05-17T17:48:55.401Z,4.03
2019-05-17T17:51:21.951Z,1.00
2019-05-17T17:53:48.277Z,1.40
2019-05-17T17:56:14.691Z,3.63
2019-05-17T17:58:41.104Z,2.27
2019-05-17T18:01:07.639Z,3.57
2019-05-17T18:03:34.090Z,2.93
2019-05-17T18:06:05.514Z,1.63
2019-05-17T18:08:34.643Z,2.97
2019-05-17T18:11:00.186Z,3.63
2019-05-17T18:13:36.686Z,1.20
2019-05-17T18:16:08.917Z,2.77
2019-05-17T18:18:35.998Z,1.40
2019-05-17T18:21:02.358Z,1.83
2019-05-17T18:23:30.882Z,1.83
2019-05-17T18:25:57.256Z,2.40
2019-05-17T18:28:23.688Z,3.53
2019-05-17T18:30:50.162Z,1.30
2019-05-17T18:33:16.561Z,1.10
2019-05-17T18:35:43.025Z,2.57
2019-05-17T18:38:22.144Z,1.43
2019-05-17T18:40:48.533Z,1.13
2019-05-17T18:43:25.809Z,2.30
2019-05-17T18:45:52.264Z,1.10
2019-05-17T18:48:18.646Z,1.10
2019-05-17T18:50:45.005Z,1.70
2019-05-17T18:53:16.751Z,1.60
2019-05-17T18:55:39.595Z,1.13
2019-05-17T18:58:05.982Z,1.40
2019-05-17T19:00:32.480Z,1.53
2019-05-17T19:02:59.960Z,1.47
2019-05-17T19:05:27.406Z,1.80
2019-05-17T19:07:58.218Z,0.97
2019-05-17T19:10:28.055Z,1.30
2019-05-17T19:12:58.318Z,1.40
2019-05-17T19:15:30.851Z,1.20
2019-05-17T19:17:57.392Z,2.27
2019-05-17T19:20:25.089Z,2.50
2019-05-17T19:22:52.698Z,1.30
2019-05-17T19:25:30.621Z,1.17
2019-05-17T19:27:57.557Z,0.97
2019-05-17T19:30:24.139Z,0.93
2019-05-17T19:32:52.897Z,1.10
2019-05-17T19:35:21.539Z,1.10
2019-05-17T19:37:48.089Z,0.93
2019-05-17T19:40:14.864Z,0.70
2019-05-17T19:42:43.280Z,1.10
2019-05-17T19:45:10.980Z,1.40
2019-05-17T19:47:37.658Z,0.97
2019-05-17T19:50:06.463Z,0.70
2019-05-17T19:52:33.328Z,0.60
2019-05-17T19:55:00.257Z,0.70
2019-05-17T19:57:29.120Z,0.90
2019-05-17T19:59:55.875Z,0.60
2019-05-17T20:02:24.301Z,0.87
2019-05-17T20:04:51.004Z,0.87
2019-05-17T20:07:20.403Z,1.83
2019-05-17T20:09:51.284Z,0.87
2019-05-17T20:12:19.673Z,1.13
2019-05-17T20:14:47.150Z,2.03
2019-05-17T20:17:13.796Z,1.43
2019-05-17T20:19:43.790Z,1.00
2019-05-17T20:22:10.173Z,1.50
2019-05-17T20:24:36.931Z,1.20
2019-05-17T20:27:04.656Z,1.30
2019-05-17T20:29:31.010Z,1.20
2019-05-17T20:31:59.925Z,1.43
2019-05-17T20:34:26.407Z,2.33
2019-05-17T20:36:59.872Z,1.40
2019-05-17T20:39:29.735Z,2.03
2019-05-17T20:41:58.188Z,1.73
2019-05-17T20:44:26.021Z,1.83
2019-05-17T20:46:52.462Z,2.07
2019-05-17T20:49:19.298Z,1.90
2019-05-17T20:51:46.321Z,2.23
2019-05-17T20:54:13.759Z,2.57
2019-05-17T20:56:43.217Z,1.77
2019-05-17T20:59:13.950Z,1.70
2019-05-17T21:01:42.611Z,1.83
2019-05-17T21:04:12.169Z,1.80
2019-05-17T21:06:38.952Z,2.43
2019-05-17T21:09:07.662Z,2.20
2019-05-17T21:11:34.107Z,3.40
2019-05-17T21:14:02.605Z,2.40
2019-05-17T21:16:28.958Z,2.90
2019-05-17T21:18:55.331Z,14.90
2019-05-17T21:21:23.000Z,4.93
2019-05-17T21:23:49.266Z,4.97
2019-05-17T21:26:15.710Z,12.87
2019-05-17T21:28:43.068Z,8.37
2019-05-17T21:31:09.571Z,6.37
2019-05-17T21:33:39.564Z,4.40
2019-05-17T21:36:06.322Z,4.90
2019-05-17T21:38:34.094Z,2.70
2019-05-17T21:41:06.018Z,2.63
2019-05-17T21:43:32.393Z,1.93
2019-05-17T21:46:04.125Z,3.50
2019-05-17T21:48:29.891Z,1.97
2019-05-17T21:50:59.608Z,2.03
2019-05-17T21:53:25.885Z,1.60
2019-05-17T21:55:52.604Z,1.83
2019-05-17T21:58:20.435Z,2.03
2019-05-17T22:00:54.028Z,1.40
2019-05-17T22:03:28.688Z,2.20
2019-05-17T22:05:54.966Z,1.60
2019-05-17T22:08:29.170Z,3.33
2019-05-17T22:10:55.525Z,1.67
2019-05-17T22:13:21.874Z,2.00
2019-05-17T22:15:48.193Z,1.93
2019-05-17T22:18:14.544Z,1.80
2019-05-17T22:20:40.937Z,1.70
2019-05-17T22:23:07.415Z,2.37
2019-05-17T22:25:33.874Z,3.10
2019-05-17T22:28:00.574Z,2.30
2019-05-17T22:30:27.776Z,3.47
2019-05-17T22:32:59.152Z,5.47
2019-05-17T22:35:25.512Z,4.20
2019-05-17T22:37:51.855Z,4.13
2019-05-17T22:40:18.408Z,3.50
2019-05-17T22:42:45.773Z,4.10
2019-05-17T22:45:12.378Z,4.00
2019-05-17T22:47:38.819Z,6.50
2019-05-17T22:50:06.552Z,3.77
2019-05-17T22:52:33.291Z,4.60
2019-05-17T22:55:02.183Z,3.20
2019-05-17T22:57:28.591Z,3.50
2019-05-17T22:59:56.940Z,2.63
2019-05-17T23:02:23.333Z,3.90
2019-05-17T23:04:49.828Z,3.97
2019-05-17T23:07:20.988Z,5.37
2019-05-17T23:09:48.664Z,4.57
2019-05-17T23:12:24.630Z,4.20
2019-05-17T23:14:50.926Z,4.70
2019-05-17T23:17:17.600Z,3.47
2019-05-17T23:19:43.880Z,3.43
2019-05-17T23:22:10.579Z,3.33
2019-05-17T23:24:36.991Z,3.80
2019-05-17T23:27:09.316Z,4.07
2019-05-17T23:29:35.700Z,3.87
2019-05-17T23:32:02.411Z,2.90
2019-05-17T23:34:29.749Z,3.20
2019-05-17T23:36:56.449Z,3.10
2019-05-17T23:39:22.728Z,2.50
2019-05-17T23:41:49.097Z,2.13
2019-05-17T23:44:15.515Z,2.10
2019-05-17T23:46:41.995Z,2.20
2019-05-17T23:49:09.408Z,2.00
2019-05-17T23:51:36.336Z,2.67
2019-05-17T23:54:02.935Z,2.70
2019-05-17T23:56:29.568Z,2.90
2019-05-17T23:58:57.947Z,2.20
